createdAt,value
2023-05-06T00:00:51.705Z,27.75
2023-05-06T00:03:18.495Z,26.98
2023-05-06T00:05:46.372Z,26.80
2023-05-06T00:08:13.088Z,27.95
2023-05-06T00:10:39.839Z,28.67
2023-05-06T00:13:06.627Z,26.58
2023-05-06T00:15:33.303Z,28.52
2023-05-06T00:18:00.751Z,32.40
2023-05-06T00:20:27.830Z,28.33
2023-05-06T00:23:06.194Z,28.50
2023-05-06T00:25:32.837Z,29.00
2023-05-06T00:27:59.513Z,27.73
2023-05-06T00:30:36.876Z,29.42
2023-05-06T00:33:04.965Z,27.17
2023-05-06T00:35:31.665Z,29.48
2023-05-06T00:37:59.672Z,30.02
2023-05-06T00:40:26.405Z,29.63
2023-05-06T00:42:56.073Z,27.67
2023-05-06T00:45:22.829Z,30.88
2023-05-06T00:47:49.674Z,29.08
2023-05-06T00:50:16.470Z,28.05
2023-05-06T00:52:47.296Z,27.08
2023-05-06T00:55:20.261Z,27.15
2023-05-06T00:57:50.688Z,26.48
2023-05-06T01:00:17.732Z,29.23
2023-05-06T01:02:47.864Z,26.30
2023-05-06T01:05:16.671Z,26.58
2023-05-06T01:07:59.642Z,28.02
2023-05-06T01:10:32.365Z,26.73
2023-05-06T01:13:01.901Z,27.30
2023-05-06T01:15:36.914Z,28.90
2023-05-06T01:18:08.533Z,27.95
2023-05-06T01:20:36.981Z,28.40
2023-05-06T01:23:07.604Z,26.45
2023-05-06T01:25:34.448Z,29.30
2023-05-06T01:30:53.517Z,26.73
2023-05-06T01:33:39.087Z,28.88
2023-05-06T01:36:14.666Z,27.75
2023-05-06T01:38:41.246Z,28.55
2023-05-06T01:41:08.441Z,26.67
2023-05-06T01:43:38.255Z,26.50
2023-05-06T01:46:20.933Z,29.45
2023-05-06T01:48:49.692Z,28.83
2023-05-06T01:51:16.376Z,28.50
2023-05-06T01:53:42.972Z,26.80
2023-05-06T01:56:09.811Z,28.15
2023-05-06T01:58:36.627Z,28.50
2023-05-06T02:01:03.332Z,27.63
2023-05-06T02:03:47.157Z,27.63
2023-05-06T02:06:13.984Z,28.27
2023-05-06T02:08:46.866Z,27.52
2023-05-06T02:11:13.603Z,27.05
2023-05-06T02:13:40.241Z,30.25
2023-05-06T02:16:07.110Z,29.55
2023-05-06T02:18:33.783Z,27.92
2023-05-06T02:21:01.264Z,29.05
2023-05-06T02:25:59.204Z,27.80
2023-05-06T02:28:31.624Z,29.35
2023-05-06T02:30:58.480Z,26.67
2023-05-06T02:33:25.541Z,28.08
2023-05-06T02:35:58.228Z,28.10
2023-05-06T02:38:25.207Z,27.70
2023-05-06T02:40:54.503Z,28.85
2023-05-06T02:43:23.360Z,29.67
2023-05-06T02:45:50.187Z,25.67
2023-05-06T02:48:28.376Z,27.88
2023-05-06T02:50:54.973Z,26.98
2023-05-06T02:55:56.025Z,27.35
2023-05-06T02:58:22.724Z,26.70
2023-05-06T03:00:49.704Z,25.92
2023-05-06T03:03:17.269Z,26.83
2023-05-06T03:05:43.910Z,27.00
2023-05-06T03:08:10.664Z,26.02
2023-05-06T03:10:54.310Z,28.42
2023-05-06T03:13:21.043Z,26.95
2023-05-06T03:15:57.089Z,27.33
2023-05-06T03:18:23.790Z,26.40
2023-05-06T03:20:50.642Z,27.35
2023-05-06T03:23:17.272Z,28.23
2023-05-06T03:25:43.995Z,28.25
2023-05-06T03:28:13.707Z,26.67
2023-05-06T03:30:40.323Z,27.02
2023-05-06T03:33:17.473Z,26.60
2023-05-06T03:35:44.120Z,28.80
2023-05-06T03:38:11.651Z,26.90
2023-05-06T03:43:04.862Z,26.13
2023-05-06T03:45:34.344Z,25.73
2023-05-06T03:48:01.076Z,26.23
2023-05-06T03:50:27.730Z,27.50
2023-05-06T03:52:54.426Z,27.85
2023-05-06T03:55:21.231Z,28.23
2023-05-06T03:57:53.735Z,27.13
2023-05-06T04:00:20.783Z,27.05
2023-05-06T04:02:47.558Z,26.15
2023-05-06T04:05:20.115Z,28.08
2023-05-06T04:07:49.829Z,25.27
2023-05-06T04:15:17.347Z,28.13
2023-05-06T04:17:43.994Z,27.02
2023-05-06T04:22:44.373Z,28.05
2023-05-06T04:25:12.487Z,25.02
2023-05-06T04:27:41.992Z,28.23
2023-05-06T04:30:09.233Z,27.35
2023-05-06T04:32:40.745Z,28.27
2023-05-06T04:35:08.824Z,25.92
2023-05-06T04:51:22.863Z,32.53
2023-05-06T04:56:23.365Z,28.17
2023-05-06T04:58:53.643Z,26.88
2023-05-06T05:01:21.088Z,27.05
2023-05-06T05:03:47.832Z,29.30
2023-05-06T05:06:14.520Z,27.33
2023-05-06T05:08:41.174Z,26.00
2023-05-06T05:11:07.845Z,26.67
2023-05-06T05:13:34.819Z,27.40
2023-05-06T05:16:07.333Z,27.33
2023-05-06T05:18:34.594Z,27.13
2023-05-06T05:21:02.625Z,26.52
2023-05-06T05:23:29.412Z,26.83
2023-05-06T05:25:56.224Z,26.17
2023-05-06T05:28:22.897Z,27.20
2023-05-06T05:30:59.643Z,26.15
2023-05-06T05:36:18.917Z,25.77
2023-05-06T05:38:45.836Z,27.77
2023-05-06T05:41:12.461Z,26.52
2023-05-06T05:43:39.166Z,25.90
2023-05-06T05:46:06.021Z,25.80
2023-05-06T05:48:33.214Z,27.23
2023-05-06T05:51:01.436Z,26.42
2023-05-06T05:53:28.268Z,26.63
2023-05-06T05:56:03.205Z,26.55
2023-05-06T05:58:29.962Z,26.08
2023-05-06T06:00:57.105Z,25.27
2023-05-06T06:03:23.812Z,25.27
2023-05-06T06:05:53.216Z,24.35
2023-05-06T06:08:19.955Z,26.08
2023-05-06T06:10:53.556Z,25.10
2023-05-06T06:13:20.449Z,26.55
2023-05-06T06:15:49.534Z,28.55
2023-05-06T06:18:17.604Z,26.65
2023-05-06T06:20:53.580Z,26.23
2023-05-06T06:23:21.130Z,26.23
2023-05-06T06:25:47.932Z,25.55
2023-05-06T06:28:14.601Z,25.40
2023-05-06T06:30:41.398Z,25.58
2023-05-06T06:33:08.163Z,27.80
2023-05-06T06:38:18.567Z,27.83
2023-05-06T06:40:45.295Z,26.13
2023-05-06T06:43:12.084Z,25.88
2023-05-06T06:45:39.183Z,26.10
2023-05-06T06:48:06.329Z,28.30
2023-05-06T06:50:33.094Z,26.13
2023-05-06T06:53:04.167Z,27.17
2023-05-06T06:55:35.011Z,25.58
2023-05-06T06:58:04.668Z,25.63
2023-05-06T07:00:33.348Z,25.75
2023-05-06T07:03:03.783Z,26.48
2023-05-06T07:05:30.497Z,27.08
2023-05-06T07:07:57.229Z,27.85
2023-05-06T07:10:24.056Z,27.50
2023-05-06T07:12:50.789Z,26.77
2023-05-06T07:15:17.564Z,28.00
2023-05-06T07:17:44.316Z,25.92
2023-05-06T07:20:11.375Z,29.15
2023-05-06T07:22:38.078Z,27.83
2023-05-06T07:25:23.572Z,27.35
2023-05-06T07:27:53.509Z,25.92
2023-05-06T07:30:22.876Z,26.80
2023-05-06T07:32:50.092Z,27.17
2023-05-06T07:35:17.467Z,27.83
2023-05-06T07:37:45.840Z,28.13
2023-05-06T07:42:43.801Z,28.13
2023-05-06T07:45:11.047Z,27.95
2023-05-06T07:50:06.522Z,28.80
2023-05-06T07:52:36.254Z,37.13
2023-05-06T07:55:02.975Z,28.20
2023-05-06T07:57:29.743Z,30.52
2023-05-06T07:59:58.583Z,29.02
2023-05-06T08:02:28.341Z,28.48
2023-05-06T08:04:55.127Z,28.25
2023-05-06T08:07:22.043Z,30.58
2023-05-06T08:09:48.742Z,29.42
2023-05-06T08:12:16.319Z,27.35
2023-05-06T08:14:45.660Z,29.10
2023-05-06T08:17:13.446Z,29.25
2023-05-06T08:19:40.156Z,30.85
2023-05-06T08:22:06.835Z,29.90
2023-05-06T08:24:37.936Z,28.77
2023-05-06T08:27:04.875Z,30.38
2023-05-06T08:29:38.245Z,31.65
2023-05-06T08:32:16.924Z,30.52
2023-05-06T08:34:43.675Z,27.33
2023-05-06T08:37:10.944Z,28.10
2023-05-06T08:39:38.108Z,26.08
2023-05-06T08:42:22.450Z,28.60
2023-05-06T08:44:51.998Z,27.23
2023-05-06T08:47:21.464Z,29.67
2023-05-06T08:49:51.220Z,31.25
2023-05-06T08:52:18.089Z,28.92
2023-05-06T08:54:45.857Z,31.15
2023-05-06T08:57:12.878Z,29.15
2023-05-06T08:59:54.586Z,28.90
2023-05-06T09:02:22.610Z,27.67
2023-05-06T09:04:49.766Z,34.95
2023-05-06T09:07:16.700Z,29.80
2023-05-06T09:12:12.409Z,28.42
2023-05-06T09:14:39.223Z,27.90
2023-05-06T09:17:06.137Z,28.17
2023-05-06T09:19:32.901Z,29.42
2023-05-06T09:22:19.745Z,28.00
2023-05-06T09:24:46.465Z,27.23
2023-05-06T09:27:15.198Z,28.42
2023-05-06T09:29:58.830Z,27.08
2023-05-06T09:32:25.625Z,27.70
2023-05-06T09:34:52.377Z,25.45
2023-05-06T09:39:57.915Z,29.27
2023-05-06T09:42:25.676Z,28.45
2023-05-06T09:45:04.543Z,28.23
2023-05-06T09:47:36.379Z,26.67
2023-05-06T09:50:03.855Z,28.25
2023-05-06T09:57:46.936Z,26.55
2023-05-06T10:00:14.199Z,28.77
2023-05-06T10:02:41.501Z,26.08
2023-05-06T10:07:36.359Z,27.05
2023-05-06T10:10:07.525Z,26.60
2023-05-06T10:12:36.173Z,25.42
2023-05-06T10:15:09.578Z,26.00
2023-05-06T10:17:39.314Z,25.02
2023-05-06T10:20:08.010Z,25.98
2023-05-06T10:22:40.253Z,25.52
2023-05-06T10:25:17.349Z,25.05
2023-05-06T10:27:47.807Z,24.35
2023-05-06T10:30:17.276Z,34.65
2023-05-06T10:32:47.694Z,24.67
2023-05-06T10:35:31.761Z,26.52
2023-05-06T10:38:03.988Z,24.30
2023-05-06T10:40:31.097Z,27.38
2023-05-06T10:43:16.535Z,24.70
2023-05-06T10:46:02.110Z,25.88
2023-05-06T10:48:29.444Z,26.38
2023-05-06T10:51:19.925Z,23.90
2023-05-06T10:54:07.159Z,24.35
2023-05-06T10:56:37.819Z,26.00
2023-05-06T10:59:08.332Z,25.45
2023-05-06T11:01:58.155Z,24.83
2023-05-06T11:04:24.814Z,25.52
2023-05-06T11:07:00.129Z,23.67
2023-05-06T11:09:29.636Z,24.45
2023-05-06T11:12:06.056Z,23.58
2023-05-06T11:14:32.773Z,24.10
2023-05-06T11:16:59.953Z,25.40
2023-05-06T11:19:36.259Z,27.38
2023-05-06T11:22:04.152Z,24.45
2023-05-06T11:24:31.873Z,23.95
2023-05-06T11:26:59.387Z,23.55
2023-05-06T11:31:55.999Z,24.23
2023-05-06T11:34:24.069Z,22.50
2023-05-06T11:36:58.691Z,23.60
2023-05-06T11:39:30.842Z,24.20
2023-05-06T11:42:03.134Z,24.58
2023-05-06T11:44:31.233Z,27.17
2023-05-06T11:46:58.557Z,23.92
2023-05-06T11:49:29.288Z,25.05
2023-05-06T11:51:58.940Z,24.65
2023-05-06T11:54:29.376Z,22.48
2023-05-06T11:56:59.341Z,22.92
2023-05-06T11:59:32.834Z,21.77
2023-05-06T12:02:03.487Z,22.52
2023-05-06T12:04:40.122Z,22.33
2023-05-06T12:07:10.645Z,22.08
2023-05-06T12:09:38.144Z,23.17
2023-05-06T12:17:06.839Z,23.10
2023-05-06T12:19:34.108Z,22.50
2023-05-06T12:22:19.618Z,22.38
2023-05-06T12:24:47.056Z,22.92
2023-05-06T12:27:13.991Z,23.55
2023-05-06T12:29:40.642Z,23.15
2023-05-06T12:32:18.190Z,23.38
2023-05-06T12:34:44.806Z,22.40
2023-05-06T12:37:24.173Z,23.63
2023-05-06T12:39:50.887Z,23.02
2023-05-06T12:42:20.777Z,26.02
2023-05-06T12:44:50.924Z,24.45
2023-05-06T12:47:21.852Z,23.75
2023-05-06T12:49:55.688Z,22.60
2023-05-06T12:57:53.056Z,22.98
2023-05-06T13:00:20.365Z,23.90
2023-05-06T13:02:47.125Z,23.27
2023-05-06T13:05:14.532Z,23.42
2023-05-06T13:07:41.389Z,24.25
2023-05-06T13:10:08.432Z,24.42
2023-05-06T13:12:39.433Z,27.00
2023-05-06T13:17:44.804Z,23.13
2023-05-06T13:20:13.554Z,26.00
2023-05-06T13:22:55.792Z,23.05
2023-05-06T13:25:26.047Z,22.38
2023-05-06T13:27:53.153Z,23.63
2023-05-06T13:30:20.203Z,24.30
2023-05-06T13:32:47.178Z,25.13
2023-05-06T13:35:13.885Z,26.98
2023-05-06T13:37:40.622Z,24.73
2023-05-06T13:40:07.578Z,24.42
2023-05-06T13:42:34.284Z,23.77
2023-05-06T13:45:17.458Z,23.38
2023-05-06T13:47:44.462Z,22.75
2023-05-06T13:50:14.051Z,24.17
2023-05-06T13:52:40.781Z,24.17
2023-05-06T13:55:08.604Z,24.75
2023-05-06T13:57:35.445Z,24.13
2023-05-06T14:00:02.174Z,23.20
2023-05-06T14:02:29.100Z,24.05
2023-05-06T14:04:57.235Z,23.42
2023-05-06T14:07:29.787Z,23.25
2023-05-06T14:09:59.101Z,22.38
2023-05-06T14:12:28.318Z,23.67
2023-05-06T14:14:54.983Z,29.58
2023-05-06T14:17:23.070Z,22.40
2023-05-06T14:19:52.947Z,24.88
2023-05-06T14:22:19.587Z,23.30
2023-05-06T14:24:46.352Z,22.80
2023-05-06T14:27:15.800Z,24.60
2023-05-06T14:29:53.670Z,22.13
2023-05-06T14:32:22.266Z,25.13
2023-05-06T14:34:51.693Z,22.40
2023-05-06T14:37:18.339Z,22.42
2023-05-06T14:39:48.840Z,23.05
2023-05-06T14:42:15.652Z,23.77
2023-05-06T14:44:43.625Z,23.20
2023-05-06T14:49:51.583Z,25.10
2023-05-06T14:52:18.265Z,22.67
2023-05-06T14:54:47.652Z,22.15
2023-05-06T14:57:14.277Z,21.10
2023-05-06T14:59:41.148Z,23.23
2023-05-06T15:02:08.693Z,21.88
2023-05-06T15:04:35.529Z,21.75
2023-05-06T15:07:11.268Z,30.70
2023-05-06T15:14:47.999Z,22.70
2023-05-06T15:17:14.636Z,22.20
2023-05-06T15:24:50.235Z,23.45
2023-05-06T15:27:16.950Z,24.75
2023-05-06T15:29:43.574Z,21.25
2023-05-06T15:32:11.116Z,20.98
2023-05-06T15:37:04.447Z,22.33
2023-05-06T15:39:34.750Z,23.80
2023-05-06T15:42:01.481Z,24.92
2023-05-06T15:44:28.138Z,21.48
2023-05-06T15:46:54.829Z,23.33
2023-05-06T15:51:59.002Z,21.85
2023-05-06T15:54:27.385Z,24.15
2023-05-06T15:59:27.919Z,29.60
2023-05-06T16:04:24.564Z,22.40
2023-05-06T16:06:54.743Z,23.33
2023-05-06T16:09:22.685Z,22.73
2023-05-06T16:11:49.612Z,23.52
2023-05-06T16:14:16.317Z,23.17
2023-05-06T16:16:43.121Z,23.25
2023-05-06T16:19:09.865Z,23.27
2023-05-06T16:21:40.028Z,22.10
2023-05-06T16:24:09.746Z,22.38
2023-05-06T16:26:42.337Z,22.23
2023-05-06T16:29:14.892Z,22.33
2023-05-06T16:31:47.145Z,21.90
2023-05-06T16:34:13.859Z,23.45
2023-05-06T16:39:08.631Z,25.63
2023-05-06T16:41:35.270Z,23.45
2023-05-06T16:44:01.960Z,23.08
2023-05-06T16:46:29.354Z,24.08
2023-05-06T16:56:48.144Z,23.00
2023-05-06T16:59:21.733Z,23.33
2023-05-06T17:01:49.041Z,22.95
2023-05-06T17:04:16.701Z,23.55
2023-05-06T17:06:43.424Z,25.13
2023-05-06T17:09:10.169Z,22.73
2023-05-06T17:11:37.028Z,23.10
2023-05-06T17:14:03.920Z,23.77
2023-05-06T17:16:31.801Z,22.58
2023-05-06T17:18:58.547Z,22.50
2023-05-06T17:21:31.913Z,29.65
2023-05-06T17:23:58.950Z,22.92
2023-05-06T17:26:25.660Z,24.17
2023-05-06T17:28:52.285Z,22.98
2023-05-06T17:31:19.158Z,22.88
2023-05-06T17:33:46.152Z,22.85
2023-05-06T17:36:18.687Z,22.80
2023-05-06T17:44:18.404Z,23.65
2023-05-06T17:46:47.767Z,23.40
2023-05-06T17:49:20.092Z,22.58
2023-05-06T17:51:46.742Z,22.17
2023-05-06T17:54:20.012Z,23.70
2023-05-06T17:56:55.681Z,21.98
2023-05-06T17:59:23.245Z,22.15
2023-05-06T18:01:50.434Z,23.50
2023-05-06T18:04:17.207Z,22.60
2023-05-06T18:06:44.448Z,24.52
2023-05-06T18:09:11.097Z,24.50
2023-05-06T18:11:38.302Z,25.98
2023-05-06T18:14:11.330Z,22.58
2023-05-06T18:16:38.072Z,23.20
2023-05-06T18:19:06.269Z,24.10
2023-05-06T18:21:34.758Z,25.48
2023-05-06T18:24:10.344Z,22.92
2023-05-06T18:26:45.284Z,24.25
2023-05-06T18:29:12.724Z,23.35
2023-05-06T18:31:39.619Z,24.38
2023-05-06T18:34:06.487Z,24.13
2023-05-06T18:36:53.138Z,22.98
2023-05-06T18:41:49.272Z,23.45
2023-05-06T18:44:18.632Z,24.92
2023-05-06T18:46:45.327Z,25.05
2023-05-06T18:49:15.139Z,23.75
2023-05-06T18:51:41.813Z,24.23
2023-05-06T18:54:08.531Z,24.88
2023-05-06T18:56:35.732Z,23.00
2023-05-06T18:59:02.353Z,23.63
2023-05-06T19:01:29.170Z,25.75
2023-05-06T19:03:56.949Z,24.63
2023-05-06T19:06:23.622Z,24.65
2023-05-06T19:08:52.335Z,25.15
2023-05-06T19:11:19.442Z,25.73
2023-05-06T19:13:46.660Z,24.83
2023-05-06T19:16:13.628Z,24.67
2023-05-06T19:18:40.409Z,23.30
2023-05-06T19:21:21.996Z,33.17
2023-05-06T19:23:48.638Z,26.33
2023-05-06T19:26:15.338Z,25.42
2023-05-06T19:28:47.694Z,25.85
2023-05-06T19:31:15.030Z,27.05
2023-05-06T19:33:43.068Z,26.85
2023-05-06T19:36:10.934Z,24.70
2023-05-06T19:38:37.897Z,30.42
2023-05-06T19:41:04.634Z,25.00
2023-05-06T19:43:32.224Z,29.52
2023-05-06T19:45:58.977Z,27.17
2023-05-06T19:48:25.639Z,25.27
2023-05-06T19:50:54.116Z,26.48
2023-05-06T19:53:22.900Z,25.52
2023-05-06T19:55:49.678Z,27.10
2023-05-06T19:58:17.408Z,26.83
2023-05-06T20:00:49.450Z,27.70
2023-05-06T20:03:16.289Z,27.45
2023-05-06T20:05:43.150Z,27.55
2023-05-06T20:08:11.476Z,30.42
2023-05-06T20:10:38.380Z,27.25
2023-05-06T20:13:14.684Z,30.33
2023-05-06T20:15:41.829Z,31.02
2023-05-06T20:18:08.457Z,28.08
2023-05-06T20:20:40.071Z,27.70
2023-05-06T20:23:21.562Z,28.70
2023-05-06T20:25:51.092Z,29.13
2023-05-06T20:28:18.700Z,28.25
2023-05-06T20:30:46.053Z,29.10
2023-05-06T20:33:13.183Z,29.60
2023-05-06T20:35:40.824Z,30.13
2023-05-06T20:38:09.426Z,28.63
2023-05-06T20:40:37.038Z,28.70
2023-05-06T20:43:03.817Z,29.17
2023-05-06T20:45:31.616Z,32.92
2023-05-06T20:47:58.942Z,28.83
2023-05-06T20:50:34.692Z,29.70
2023-05-06T20:53:10.971Z,30.75
2023-05-06T20:55:37.655Z,29.88
2023-05-06T20:58:04.551Z,29.88
2023-05-06T21:00:31.505Z,29.13
2023-05-06T21:08:05.024Z,29.58
2023-05-06T21:10:31.693Z,29.73
2023-05-06T21:12:58.473Z,28.88
2023-05-06T21:15:26.020Z,30.60
2023-05-06T21:20:19.825Z,30.73
2023-05-06T21:22:46.499Z,28.90
2023-05-06T21:25:27.472Z,29.65
2023-05-06T21:27:54.092Z,31.23
2023-05-06T21:30:21.745Z,31.23
2023-05-06T21:32:48.515Z,31.02
2023-05-06T21:35:18.214Z,33.72
2023-05-06T21:37:44.907Z,31.33
2023-05-06T21:40:12.306Z,32.00
2023-05-06T21:42:38.993Z,29.67
2023-05-06T21:45:06.430Z,32.17
2023-05-06T21:47:38.193Z,30.92
2023-05-06T21:50:05.057Z,30.48
2023-05-06T21:52:31.694Z,32.15
2023-05-06T21:54:58.400Z,30.02
2023-05-06T21:57:25.021Z,33.85
2023-05-06T21:59:52.275Z,32.70
2023-05-06T22:02:18.976Z,30.98
2023-05-06T22:04:45.654Z,30.65
2023-05-06T22:07:12.306Z,30.33
2023-05-06T22:09:53.722Z,32.13
2023-05-06T22:12:20.802Z,31.25
2023-05-06T22:14:47.437Z,31.75
2023-05-06T22:17:16.978Z,31.23
2023-05-06T22:19:43.570Z,28.15
2023-05-06T22:22:10.759Z,30.73
2023-05-06T22:24:38.014Z,30.45
2023-05-06T22:27:04.651Z,30.83
2023-05-06T22:29:32.343Z,31.98
2023-05-06T22:32:00.677Z,29.67
2023-05-06T22:34:27.431Z,29.27
2023-05-06T22:36:59.169Z,31.30
2023-05-06T22:39:27.471Z,30.75
2023-05-06T22:41:54.128Z,30.67
2023-05-06T22:44:21.300Z,31.15
2023-05-06T22:46:48.547Z,31.13
2023-05-06T22:49:21.802Z,29.90
2023-05-06T22:51:48.483Z,30.65
2023-05-06T22:54:15.156Z,32.13
2023-05-06T22:56:44.834Z,29.25
2023-05-06T22:59:11.893Z,30.73
2023-05-06T23:01:41.336Z,29.55
2023-05-06T23:04:07.987Z,30.90
2023-05-06T23:06:34.664Z,29.20
2023-05-06T23:09:01.381Z,31.25
2023-05-06T23:11:28.062Z,32.08
2023-05-06T23:13:54.697Z,31.85
2023-05-06T23:16:24.381Z,31.52
2023-05-06T23:18:51.003Z,29.08
2023-05-06T23:21:27.974Z,29.75
2023-05-06T23:23:54.651Z,29.65
2023-05-06T23:26:24.417Z,30.88
2023-05-06T23:28:51.026Z,27.65
2023-05-06T23:31:20.664Z,30.10
2023-05-06T23:33:47.370Z,29.35
2023-05-06T23:36:22.632Z,29.15
2023-05-06T23:38:49.771Z,31.20
2023-05-06T23:41:16.457Z,31.00
2023-05-06T23:43:43.090Z,28.38
2023-05-06T23:46:12.175Z,29.77
2023-05-06T23:48:38.885Z,29.55
2023-05-06T23:51:11.255Z,30.63
2023-05-06T23:53:37.884Z,30.05
2023-05-06T23:56:17.727Z,30.77
2023-05-06T23:58:44.368Z,30.23
